sensor_id;sensor_type;location;lat;lon;timestamp;temperature;humidity
70708;SHT30;58277;47.316;18.908;2023-03-14T00:00:16;6.78;65.32
70708;SHT30;58277;47.316;18.908;2023-03-14T00:02:40;6.76;65.29
70708;SHT30;58277;47.316;18.908;2023-03-14T00:05:03;6.74;65.53
70708;SHT30;58277;47.316;18.908;2023-03-14T00:07:28;6.70;65.69
70708;SHT30;58277;47.316;18.908;2023-03-14T00:09:56;6.70;65.98
70708;SHT30;58277;47.316;18.908;2023-03-14T00:12:19;6.71;65.62
70708;SHT30;58277;47.316;18.908;2023-03-14T00:14:41;6.71;65.81
70708;SHT30;58277;47.316;18.908;2023-03-14T00:17:06;6.70;65.96
70708;SHT30;58277;47.316;18.908;2023-03-14T00:19:28;6.66;66.12
70708;SHT30;58277;47.316;18.908;2023-03-14T00:21:51;6.63;66.38
70708;SHT30;58277;47.316;18.908;2023-03-14T00:24:13;6.64;65.97
70708;SHT30;58277;47.316;18.908;2023-03-14T00:26:36;6.64;66.34
70708;SHT30;58277;47.316;18.908;2023-03-14T00:29:01;6.69;66.24
70708;SHT30;58277;47.316;18.908;2023-03-14T00:31:23;6.67;65.79
70708;SHT30;58277;47.316;18.908;2023-03-14T00:33:46;6.66;65.86
70708;SHT30;58277;47.316;18.908;2023-03-14T00:36:13;6.58;66.65
70708;SHT30;58277;47.316;18.908;2023-03-14T00:38:36;6.57;66.51
70708;SHT30;58277;47.316;18.908;2023-03-14T00:41:06;6.60;66.61
70708;SHT30;58277;47.316;18.908;2023-03-14T00:43:29;6.58;66.68
70708;SHT30;58277;47.316;18.908;2023-03-14T00:45:52;6.71;66.36
70708;SHT30;58277;47.316;18.908;2023-03-14T00:48:15;6.83;65.84
70708;SHT30;58277;47.316;18.908;2023-03-14T00:50:39;6.83;65.48
70708;SHT30;58277;47.316;18.908;2023-03-14T00:53:02;6.87;65.37
70708;SHT30;58277;47.316;18.908;2023-03-14T00:55:25;6.92;65.18
70708;SHT30;58277;47.316;18.908;2023-03-14T00:57:48;6.95;64.98
70708;SHT30;58277;47.316;18.908;2023-03-14T01:00:11;6.95;65.02
70708;SHT30;58277;47.316;18.908;2023-03-14T01:02:35;6.91;65.17
70708;SHT30;58277;47.316;18.908;2023-03-14T01:04:58;6.88;65.39
70708;SHT30;58277;47.316;18.908;2023-03-14T01:07:21;6.78;65.60
70708;SHT30;58277;47.316;18.908;2023-03-14T01:09:45;6.71;66.31
70708;SHT30;58277;47.316;18.908;2023-03-14T01:12:07;6.64;66.68
70708;SHT30;58277;47.316;18.908;2023-03-14T01:14:30;6.57;66.79
70708;SHT30;58277;47.316;18.908;2023-03-14T01:16:53;6.60;66.77
70708;SHT30;58277;47.316;18.908;2023-03-14T01:19:16;6.44;67.18
70708;SHT30;58277;47.316;18.908;2023-03-14T01:21:38;6.40;67.60
70708;SHT30;58277;47.316;18.908;2023-03-14T01:24:03;6.30;67.36
70708;SHT30;58277;47.316;18.908;2023-03-14T01:26:28;6.32;67.71
70708;SHT30;58277;47.316;18.908;2023-03-14T01:28:53;6.22;67.86
70708;SHT30;58277;47.316;18.908;2023-03-14T01:31:17;6.21;67.91
70708;SHT30;58277;47.316;18.908;2023-03-14T01:33:41;6.32;67.54
70708;SHT30;58277;47.316;18.908;2023-03-14T01:36:05;6.46;66.56
70708;SHT30;58277;47.316;18.908;2023-03-14T01:38:29;6.56;66.59
70708;SHT30;58277;47.316;18.908;2023-03-14T01:40:53;6.63;66.07
70708;SHT30;58277;47.316;18.908;2023-03-14T01:43:18;6.63;66.14
70708;SHT30;58277;47.316;18.908;2023-03-14T01:48:39;6.51;66.69
70708;SHT30;58277;47.316;18.908;2023-03-14T01:51:06;6.49;66.80
70708;SHT30;58277;47.316;18.908;2023-03-14T01:53:30;6.44;66.70
70708;SHT30;58277;47.316;18.908;2023-03-14T01:55:55;6.39;67.33
70708;SHT30;58277;47.316;18.908;2023-03-14T01:58:19;6.33;67.59
70708;SHT30;58277;47.316;18.908;2023-03-14T02:00:43;6.30;67.75
70708;SHT30;58277;47.316;18.908;2023-03-14T02:03:10;6.26;68.08
70708;SHT30;58277;47.316;18.908;2023-03-14T02:05:37;6.25;68.06
70708;SHT30;58277;47.316;18.908;2023-03-14T02:08:10;6.23;67.81
70708;SHT30;58277;47.316;18.908;2023-03-14T02:10:43;6.23;68.22
70708;SHT30;58277;47.316;18.908;2023-03-14T02:13:07;6.21;68.13
70708;SHT30;58277;47.316;18.908;2023-03-14T02:15:56;6.16;68.63
70708;SHT30;58277;47.316;18.908;2023-03-14T02:18:37;6.16;68.55
70708;SHT30;58277;47.316;18.908;2023-03-14T02:24:34;6.21;68.61
70708;SHT30;58277;47.316;18.908;2023-03-14T02:27:07;6.28;68.49
70708;SHT30;58277;47.316;18.908;2023-03-14T02:29:39;6.39;67.79
70708;SHT30;58277;47.316;18.908;2023-03-14T02:32:03;6.54;67.54
70708;SHT30;58277;47.316;18.908;2023-03-14T02:34:26;6.57;67.28
70708;SHT30;58277;47.316;18.908;2023-03-14T02:36:49;6.64;67.16
70708;SHT30;58277;47.316;18.908;2023-03-14T02:39:19;6.64;67.26
70708;SHT30;58277;47.316;18.908;2023-03-14T02:41:44;6.63;67.28
70708;SHT30;58277;47.316;18.908;2023-03-14T02:44:08;6.56;67.91
70708;SHT30;58277;47.316;18.908;2023-03-14T02:46:31;6.53;68.05
70708;SHT30;58277;47.316;18.908;2023-03-14T02:48:57;6.49;68.40
70708;SHT30;58277;47.316;18.908;2023-03-14T02:51:24;6.46;68.50
70708;SHT30;58277;47.316;18.908;2023-03-14T02:53:48;6.44;68.69
70708;SHT30;58277;47.316;18.908;2023-03-14T02:56:11;6.44;68.58
70708;SHT30;58277;47.316;18.908;2023-03-14T02:58:34;6.39;69.11
70708;SHT30;58277;47.316;18.908;2023-03-14T03:01:06;6.39;69.27
70708;SHT30;58277;47.316;18.908;2023-03-14T03:03:28;6.40;69.27
70708;SHT30;58277;47.316;18.908;2023-03-14T03:05:53;6.40;69.46
70708;SHT30;58277;47.316;18.908;2023-03-14T03:08:18;6.46;69.15
70708;SHT30;58277;47.316;18.908;2023-03-14T03:10:42;6.50;69.15
70708;SHT30;58277;47.316;18.908;2023-03-14T03:13:05;6.54;69.22
70708;SHT30;58277;47.316;18.908;2023-03-14T03:15:28;6.58;68.97
70708;SHT30;58277;47.316;18.908;2023-03-14T03:17:52;6.63;68.88
70708;SHT30;58277;47.316;18.908;2023-03-14T03:20:15;6.69;68.91
70708;SHT30;58277;47.316;18.908;2023-03-14T03:22:39;6.70;68.98
70708;SHT30;58277;47.316;18.908;2023-03-14T03:25:05;6.76;68.82
70708;SHT30;58277;47.316;18.908;2023-03-14T03:27:32;6.78;68.84
70708;SHT30;58277;47.316;18.908;2023-03-14T03:29:58;6.77;68.97
70708;SHT30;58277;47.316;18.908;2023-03-14T03:32:26;6.76;68.91
70708;SHT30;58277;47.316;18.908;2023-03-14T03:34:49;6.71;69.07
70708;SHT30;58277;47.316;18.908;2023-03-14T03:37:12;6.76;69.13
70708;SHT30;58277;47.316;18.908;2023-03-14T03:39:40;6.67;69.49
70708;SHT30;58277;47.316;18.908;2023-03-14T03:42:03;6.60;69.78
70708;SHT30;58277;47.316;18.908;2023-03-14T03:44:26;6.58;69.86
70708;SHT30;58277;47.316;18.908;2023-03-14T03:46:49;6.54;70.05
70708;SHT30;58277;47.316;18.908;2023-03-14T03:49:13;6.54;70.24
70708;SHT30;58277;47.316;18.908;2023-03-14T03:51:35;6.56;70.13
70708;SHT30;58277;47.316;18.908;2023-03-14T03:53:58;6.57;69.80
70708;SHT30;58277;47.316;18.908;2023-03-14T03:56:27;6.53;70.27
70708;SHT30;58277;47.316;18.908;2023-03-14T03:58:50;6.50;70.59
70708;SHT30;58277;47.316;18.908;2023-03-14T04:01:13;6.51;70.28
70708;SHT30;58277;47.316;18.908;2023-03-14T04:03:36;6.46;70.45
70708;SHT30;58277;47.316;18.908;2023-03-14T04:06:07;6.51;70.44
70708;SHT30;58277;47.316;18.908;2023-03-14T04:08:32;6.58;70.08
70708;SHT30;58277;47.316;18.908;2023-03-14T04:11:00;6.64;69.96
70708;SHT30;58277;47.316;18.908;2023-03-14T04:13:42;6.71;69.64
70708;SHT30;58277;47.316;18.908;2023-03-14T04:16:13;6.74;69.58
70708;SHT30;58277;47.316;18.908;2023-03-14T04:18:37;6.85;69.25
70708;SHT30;58277;47.316;18.908;2023-03-14T04:21:00;6.90;69.17
70708;SHT30;58277;47.316;18.908;2023-03-14T04:23:32;6.95;68.71
70708;SHT30;58277;47.316;18.908;2023-03-14T04:25:55;6.99;68.41
70708;SHT30;58277;47.316;18.908;2023-03-14T04:28:20;7.07;68.51
70708;SHT30;58277;47.316;18.908;2023-03-14T04:30:43;7.14;68.03
70708;SHT30;58277;47.316;18.908;2023-03-14T04:33:10;7.20;67.89
70708;SHT30;58277;47.316;18.908;2023-03-14T04:35:40;7.18;67.91
70708;SHT30;58277;47.316;18.908;2023-03-14T04:38:05;7.20;67.82
70708;SHT30;58277;47.316;18.908;2023-03-14T04:40:29;7.20;67.74
70708;SHT30;58277;47.316;18.908;2023-03-14T04:42:56;7.23;67.50
70708;SHT30;58277;47.316;18.908;2023-03-14T04:45:19;7.22;67.48
70708;SHT30;58277;47.316;18.908;2023-03-14T04:47:42;7.18;67.75
70708;SHT30;58277;47.316;18.908;2023-03-14T04:50:09;7.09;67.79
70708;SHT30;58277;47.316;18.908;2023-03-14T04:52:35;7.11;67.74
70708;SHT30;58277;47.316;18.908;2023-03-14T04:54:59;7.14;67.48
70708;SHT30;58277;47.316;18.908;2023-03-14T04:57:22;7.14;67.66
70708;SHT30;58277;47.316;18.908;2023-03-14T04:59:46;7.05;67.88
70708;SHT30;58277;47.316;18.908;2023-03-14T05:02:28;7.01;68.32
70708;SHT30;58277;47.316;18.908;2023-03-14T05:05:08;6.99;68.31
70708;SHT30;58277;47.316;18.908;2023-03-14T05:07:59;7.02;68.46
70708;SHT30;58277;47.316;18.908;2023-03-14T05:10:33;6.97;68.42
70708;SHT30;58277;47.316;18.908;2023-03-14T05:13:20;7.02;68.53
70708;SHT30;58277;47.316;18.908;2023-03-14T05:15:52;7.02;68.14
70708;SHT30;58277;47.316;18.908;2023-03-14T05:18:42;7.14;67.99
70708;SHT30;58277;47.316;18.908;2023-03-14T05:21:28;7.29;67.65
70708;SHT30;58277;47.316;18.908;2023-03-14T05:24:09;7.30;67.36
70708;SHT30;58277;47.316;18.908;2023-03-14T05:27:05;7.43;66.95
70708;SHT30;58277;47.316;18.908;2023-03-14T05:29:47;7.66;66.18
70708;SHT30;58277;47.316;18.908;2023-03-14T05:32:34;7.74;65.81
70708;SHT30;58277;47.316;18.908;2023-03-14T05:35:12;7.87;65.20
70708;SHT30;58277;47.316;18.908;2023-03-14T05:37:55;7.97;64.75
70708;SHT30;58277;47.316;18.908;2023-03-14T05:40:37;7.97;64.78
70708;SHT30;58277;47.316;18.908;2023-03-14T05:43:20;8.18;64.33
70708;SHT30;58277;47.316;18.908;2023-03-14T05:45:58;8.35;63.87
70708;SHT30;58277;47.316;18.908;2023-03-14T05:48:41;8.66;62.95
70708;SHT30;58277;47.316;18.908;2023-03-14T05:51:28;8.76;62.12
70708;SHT30;58277;47.316;18.908;2023-03-14T05:54:01;8.84;61.37
70708;SHT30;58277;47.316;18.908;2023-03-14T05:56:43;9.10;61.02
70708;SHT30;58277;47.316;18.908;2023-03-14T05:59:19;9.36;60.28
70708;SHT30;58277;47.316;18.908;2023-03-14T06:02:00;9.86;58.33
70708;SHT30;58277;47.316;18.908;2023-03-14T06:04:30;10.11;57.98
70708;SHT30;58277;47.316;18.908;2023-03-14T06:06:54;10.41;56.80
70708;SHT30;58277;47.316;18.908;2023-03-14T06:09:18;10.35;57.07
70708;SHT30;58277;47.316;18.908;2023-03-14T06:11:43;10.38;56.54
70708;SHT30;58277;47.316;18.908;2023-03-14T06:14:07;10.53;56.85
70708;SHT30;58277;47.316;18.908;2023-03-14T06:16:30;11.13;55.29
70708;SHT30;58277;47.316;18.908;2023-03-14T06:18:55;12.09;52.40
70708;SHT30;58277;47.316;18.908;2023-03-14T06:21:19;12.07;52.13
70708;SHT30;58277;47.316;18.908;2023-03-14T06:23:43;12.12;51.38
70708;SHT30;58277;47.316;18.908;2023-03-14T06:26:07;12.58;51.48
70708;SHT30;58277;47.316;18.908;2023-03-14T06:28:30;12.40;51.49
70708;SHT30;58277;47.316;18.908;2023-03-14T06:30:55;11.97;52.63
70708;SHT30;58277;47.316;18.908;2023-03-14T06:33:18;12.03;52.34
70708;SHT30;58277;47.316;18.908;2023-03-14T06:35:41;12.33;52.06
70708;SHT30;58277;47.316;18.908;2023-03-14T06:38:04;12.12;52.46
70708;SHT30;58277;47.316;18.908;2023-03-14T06:40:29;12.33;52.59
70708;SHT30;58277;47.316;18.908;2023-03-14T06:42:59;11.71;53.22
70708;SHT30;58277;47.316;18.908;2023-03-14T06:45:25;11.65;53.88
70708;SHT30;58277;47.316;18.908;2023-03-14T06:47:49;11.55;54.29
70708;SHT30;58277;47.316;18.908;2023-03-14T06:50:15;11.21;55.07
70708;SHT30;58277;47.316;18.908;2023-03-14T06:52:40;11.31;55.36
70708;SHT30;58277;47.316;18.908;2023-03-14T06:55:09;11.50;54.89
70708;SHT30;58277;47.316;18.908;2023-03-14T06:57:32;11.38;55.06
70708;SHT30;58277;47.316;18.908;2023-03-14T06:59:56;11.21;55.61
70708;SHT30;58277;47.316;18.908;2023-03-14T07:02:19;11.44;55.20
70708;SHT30;58277;47.316;18.908;2023-03-14T07:05:03;11.52;55.34
70708;SHT30;58277;47.316;18.908;2023-03-14T07:07:27;11.71;54.74
70708;SHT30;58277;47.316;18.908;2023-03-14T07:09:52;11.99;54.13
70708;SHT30;58277;47.316;18.908;2023-03-14T07:12:16;12.45;52.90
70708;SHT30;58277;47.316;18.908;2023-03-14T07:14:39;12.85;51.89
70708;SHT30;58277;47.316;18.908;2023-03-14T07:17:02;12.99;51.57
70708;SHT30;58277;47.316;18.908;2023-03-14T07:19:25;13.36;50.52
70708;SHT30;58277;47.316;18.908;2023-03-14T07:21:48;13.34;50.78
70708;SHT30;58277;47.316;18.908;2023-03-14T07:24:17;13.85;49.53
70708;SHT30;58277;47.316;18.908;2023-03-14T07:26:40;13.85;49.33
70708;SHT30;58277;47.316;18.908;2023-03-14T07:29:03;14.34;48.16
70708;SHT30;58277;47.316;18.908;2023-03-14T07:31:27;14.13;48.89
70708;SHT30;58277;47.316;18.908;2023-03-14T07:33:50;14.05;49.02
70708;SHT30;58277;47.316;18.908;2023-03-14T07:36:15;13.77;48.53
70708;SHT30;58277;47.316;18.908;2023-03-14T07:38:40;14.06;48.76
70708;SHT30;58277;47.316;18.908;2023-03-14T07:41:09;14.05;48.58
70708;SHT30;58277;47.316;18.908;2023-03-14T07:43:39;14.30;48.41
70708;SHT30;58277;47.316;18.908;2023-03-14T07:46:02;14.15;48.77
70708;SHT30;58277;47.316;18.908;2023-03-14T07:48:25;14.40;48.37
70708;SHT30;58277;47.316;18.908;2023-03-14T07:50:49;14.81;48.26
70708;SHT30;58277;47.316;18.908;2023-03-14T07:53:12;15.63;46.82
70708;SHT30;58277;47.316;18.908;2023-03-14T07:55:35;16.24;45.14
70708;SHT30;58277;47.316;18.908;2023-03-14T07:57:58;16.52;43.47
70708;SHT30;58277;47.316;18.908;2023-03-14T08:00:21;16.51;44.39
70708;SHT30;58277;47.316;18.908;2023-03-14T08:02:45;16.76;43.28
70708;SHT30;58277;47.316;18.908;2023-03-14T08:05:08;17.38;40.97
70708;SHT30;58277;47.316;18.908;2023-03-14T08:07:32;17.53;40.01
70708;SHT30;58277;47.316;18.908;2023-03-14T08:09:58;17.93;39.82
70708;SHT30;58277;47.316;18.908;2023-03-14T08:12:21;17.93;40.11
70708;SHT30;58277;47.316;18.908;2023-03-14T08:14:44;17.82;40.02
70708;SHT30;58277;47.316;18.908;2023-03-14T08:17:06;18.00;40.36
70708;SHT30;58277;47.316;18.908;2023-03-14T08:19:31;18.18;39.75
70708;SHT30;58277;47.316;18.908;2023-03-14T08:21:53;18.01;39.66
70708;SHT30;58277;47.316;18.908;2023-03-14T08:24:17;18.17;40.05
70708;SHT30;58277;47.316;18.908;2023-03-14T08:26:39;17.63;40.67
70708;SHT30;58277;47.316;18.908;2023-03-14T08:29:03;17.17;42.46
70708;SHT30;58277;47.316;18.908;2023-03-14T08:31:27;17.07;43.49
70708;SHT30;58277;47.316;18.908;2023-03-14T08:33:49;17.24;42.61
70708;SHT30;58277;47.316;18.908;2023-03-14T08:36:14;17.13;42.21
70708;SHT30;58277;47.316;18.908;2023-03-14T08:38:37;17.28;42.10
70708;SHT30;58277;47.316;18.908;2023-03-14T08:41:01;17.15;42.44
70708;SHT30;58277;47.316;18.908;2023-03-14T08:43:25;16.99;43.51
70708;SHT30;58277;47.316;18.908;2023-03-14T08:45:48;17.10;43.32
70708;SHT30;58277;47.316;18.908;2023-03-14T08:48:11;16.97;43.28
70708;SHT30;58277;47.316;18.908;2023-03-14T08:50:34;16.84;43.99
70708;SHT30;58277;47.316;18.908;2023-03-14T08:52:57;16.81;43.80
70708;SHT30;58277;47.316;18.908;2023-03-14T08:55:22;16.52;43.93
70708;SHT30;58277;47.316;18.908;2023-03-14T08:57:45;16.32;43.99
70708;SHT30;58277;47.316;18.908;2023-03-14T09:00:11;16.19;43.89
70708;SHT30;58277;47.316;18.908;2023-03-14T09:02:36;16.33;45.18
70708;SHT30;58277;47.316;18.908;2023-03-14T09:05:01;16.35;45.50
70708;SHT30;58277;47.316;18.908;2023-03-14T09:07:24;16.01;44.59
70708;SHT30;58277;47.316;18.908;2023-03-14T09:09:48;15.73;45.34
70708;SHT30;58277;47.316;18.908;2023-03-14T09:12:11;15.70;45.55
70708;SHT30;58277;47.316;18.908;2023-03-14T09:14:34;15.77;46.39
70708;SHT30;58277;47.316;18.908;2023-03-14T09:16:57;15.80;45.82
70708;SHT30;58277;47.316;18.908;2023-03-14T09:19:20;15.98;46.31
70708;SHT30;58277;47.316;18.908;2023-03-14T09:21:43;16.38;45.47
70708;SHT30;58277;47.316;18.908;2023-03-14T09:24:07;16.63;44.80
70708;SHT30;58277;47.316;18.908;2023-03-14T09:26:30;17.13;43.83
70708;SHT30;58277;47.316;18.908;2023-03-14T09:28:53;17.68;42.35
70708;SHT30;58277;47.316;18.908;2023-03-14T09:31:17;18.06;41.71
70708;SHT30;58277;47.316;18.908;2023-03-14T09:33:40;18.34;40.18
70708;SHT30;58277;47.316;18.908;2023-03-14T09:36:04;18.48;39.50
70708;SHT30;58277;47.316;18.908;2023-03-14T09:38:28;18.77;40.09
70708;SHT30;58277;47.316;18.908;2023-03-14T09:40:51;19.07;38.92
70708;SHT30;58277;47.316;18.908;2023-03-14T09:43:15;19.41;38.27
70708;SHT30;58277;47.316;18.908;2023-03-14T09:45:40;19.54;37.19
70708;SHT30;58277;47.316;18.908;2023-03-14T09:48:08;19.75;37.92
70708;SHT30;58277;47.316;18.908;2023-03-14T09:50:40;19.86;36.44
70708;SHT30;58277;47.316;18.908;2023-03-14T09:53:14;19.95;36.99
70708;SHT30;58277;47.316;18.908;2023-03-14T09:55:38;19.72;36.59
70708;SHT30;58277;47.316;18.908;2023-03-14T09:58:04;19.90;36.75
70708;SHT30;58277;47.316;18.908;2023-03-14T10:00:31;20.17;36.80
70708;SHT30;58277;47.316;18.908;2023-03-14T10:05:46;20.19;36.26
70708;SHT30;58277;47.316;18.908;2023-03-14T10:08:13;20.25;35.93
70708;SHT30;58277;47.316;18.908;2023-03-14T10:10:40;20.09;36.35
70708;SHT30;58277;47.316;18.908;2023-03-14T10:13:23;20.04;36.06
70708;SHT30;58277;47.316;18.908;2023-03-14T10:15:52;19.95;36.81
70708;SHT30;58277;47.316;18.908;2023-03-14T10:18:16;20.12;36.33
70708;SHT30;58277;47.316;18.908;2023-03-14T10:20:44;20.17;36.13
70708;SHT30;58277;47.316;18.908;2023-03-14T10:23:22;20.29;36.06
70708;SHT30;58277;47.316;18.908;2023-03-14T10:28:34;20.39;36.04
70708;SHT30;58277;47.316;18.908;2023-03-14T10:30:59;20.46;35.76
70708;SHT30;58277;47.316;18.908;2023-03-14T10:33:23;20.68;35.43
70708;SHT30;58277;47.316;18.908;2023-03-14T10:35:52;20.56;35.22
70708;SHT30;58277;47.316;18.908;2023-03-14T10:38:17;20.67;34.87
70708;SHT30;58277;47.316;18.908;2023-03-14T10:40:45;20.81;35.01
70708;SHT30;58277;47.316;18.908;2023-03-14T10:43:15;20.61;34.50
70708;SHT30;58277;47.316;18.908;2023-03-14T10:45:43;20.51;35.58
70708;SHT30;58277;47.316;18.908;2023-03-14T10:48:22;20.39;35.42
70708;SHT30;58277;47.316;18.908;2023-03-14T10:56:05;20.30;36.62
70708;SHT30;58277;47.316;18.908;2023-03-14T10:58:30;20.39;36.73
70708;SHT30;58277;47.316;18.908;2023-03-14T11:03:33;20.95;35.34
70708;SHT30;58277;47.316;18.908;2023-03-14T11:06:00;21.06;34.86
70708;SHT30;58277;47.316;18.908;2023-03-14T11:08:30;21.21;34.92
70708;SHT30;58277;47.316;18.908;2023-03-14T11:11:02;21.46;34.58
70708;SHT30;58277;47.316;18.908;2023-03-14T11:21:29;21.61;34.54
70708;SHT30;58277;47.316;18.908;2023-03-14T11:28:57;21.77;34.25
70708;SHT30;58277;47.316;18.908;2023-03-14T11:36:40;22.26;33.43
70708;SHT30;58277;47.316;18.908;2023-03-14T11:39:11;22.12;33.51
70708;SHT30;58277;47.316;18.908;2023-03-14T11:41:41;22.16;33.30
70708;SHT30;58277;47.316;18.908;2023-03-14T11:44:30;22.15;33.63
70708;SHT30;58277;47.316;18.908;2023-03-14T11:47:01;22.05;33.40
70708;SHT30;58277;47.316;18.908;2023-03-14T11:49:38;22.42;33.07
70708;SHT30;58277;47.316;18.908;2023-03-14T11:52:13;22.77;33.09
70708;SHT30;58277;47.316;18.908;2023-03-14T11:54:55;23.10;32.13
70708;SHT30;58277;47.316;18.908;2023-03-14T11:57:21;23.24;32.21
70708;SHT30;58277;47.316;18.908;2023-03-14T12:00:22;22.89;31.71
70708;SHT30;58277;47.316;18.908;2023-03-14T12:02:53;22.62;32.37
70708;SHT30;58277;47.316;18.908;2023-03-14T12:08:33;22.01;33.45
70708;SHT30;58277;47.316;18.908;2023-03-14T12:13:33;21.66;33.62
70708;SHT30;58277;47.316;18.908;2023-03-14T12:18:55;21.26;35.10
70708;SHT30;58277;47.316;18.908;2023-03-14T12:21:18;21.42;36.03
70708;SHT30;58277;47.316;18.908;2023-03-14T12:23:51;21.09;35.69
70708;SHT30;58277;47.316;18.908;2023-03-14T12:26:17;21.15;35.74
70708;SHT30;58277;47.316;18.908;2023-03-14T12:42:08;21.21;35.07
70708;SHT30;58277;47.316;18.908;2023-03-14T12:46:58;21.43;35.65
70708;SHT30;58277;47.316;18.908;2023-03-14T12:49:29;21.13;36.33
70708;SHT30;58277;47.316;18.908;2023-03-14T12:52:01;20.68;36.40
70708;SHT30;58277;47.316;18.908;2023-03-14T12:54:43;20.43;37.03
70708;SHT30;58277;47.316;18.908;2023-03-14T12:57:28;20.32;37.40
70708;SHT30;58277;47.316;18.908;2023-03-14T12:59:57;20.40;38.03
70708;SHT30;58277;47.316;18.908;2023-03-14T13:02:26;20.15;38.35
70708;SHT30;58277;47.316;18.908;2023-03-14T13:04:51;20.19;37.69
70708;SHT30;58277;47.316;18.908;2023-03-14T13:13:09;19.86;38.76
70708;SHT30;58277;47.316;18.908;2023-03-14T13:15:39;20.05;39.57
70708;SHT30;58277;47.316;18.908;2023-03-14T13:21:05;19.89;38.49
70708;SHT30;58277;47.316;18.908;2023-03-14T13:23:31;19.83;38.47
70708;SHT30;58277;47.316;18.908;2023-03-14T13:25:54;19.79;38.51
70708;SHT30;58277;47.316;18.908;2023-03-14T13:28:18;19.67;38.11
70708;SHT30;58277;47.316;18.908;2023-03-14T13:30:44;19.64;36.69
70708;SHT30;58277;47.316;18.908;2023-03-14T13:33:12;19.72;36.02
70708;SHT30;58277;47.316;18.908;2023-03-14T13:35:42;19.77;36.28
70708;SHT30;58277;47.316;18.908;2023-03-14T13:38:15;19.90;35.10
70708;SHT30;58277;47.316;18.908;2023-03-14T13:40:42;19.88;34.98
70708;SHT30;58277;47.316;18.908;2023-03-14T13:46:14;19.98;35.16
70708;SHT30;58277;47.316;18.908;2023-03-14T13:48:49;20.04;34.60
70708;SHT30;58277;47.316;18.908;2023-03-14T13:51:13;20.12;34.54
70708;SHT30;58277;47.316;18.908;2023-03-14T13:53:46;20.15;34.41
70708;SHT30;58277;47.316;18.908;2023-03-14T13:56:10;20.16;34.22
70708;SHT30;58277;47.316;18.908;2023-03-14T13:58:37;20.09;34.20
70708;SHT30;58277;47.316;18.908;2023-03-14T14:01:15;20.09;34.24
70708;SHT30;58277;47.316;18.908;2023-03-14T14:03:41;20.08;34.43
70708;SHT30;58277;47.316;18.908;2023-03-14T14:06:08;20.17;34.09
70708;SHT30;58277;47.316;18.908;2023-03-14T14:08:33;20.23;35.05
70708;SHT30;58277;47.316;18.908;2023-03-14T14:11:01;20.29;34.43
70708;SHT30;58277;47.316;18.908;2023-03-14T14:13:26;20.29;34.32
70708;SHT30;58277;47.316;18.908;2023-03-14T14:15:51;20.16;34.21
70708;SHT30;58277;47.316;18.908;2023-03-14T14:18:18;20.23;33.84
70708;SHT30;58277;47.316;18.908;2023-03-14T14:20:45;20.22;33.99
70708;SHT30;58277;47.316;18.908;2023-03-14T14:23:20;20.32;34.44
70708;SHT30;58277;47.316;18.908;2023-03-14T14:25:49;20.33;35.05
70708;SHT30;58277;47.316;18.908;2023-03-14T14:30:42;20.06;36.27
70708;SHT30;58277;47.316;18.908;2023-03-14T14:33:20;19.85;37.18
70708;SHT30;58277;47.316;18.908;2023-03-14T14:35:50;19.96;37.78
70708;SHT30;58277;47.316;18.908;2023-03-14T14:38:16;19.88;38.31
70708;SHT30;58277;47.316;18.908;2023-03-14T14:40:45;19.81;38.53
70708;SHT30;58277;47.316;18.908;2023-03-14T14:43:14;19.88;37.71
70708;SHT30;58277;47.316;18.908;2023-03-14T14:45:38;19.74;38.52
70708;SHT30;58277;47.316;18.908;2023-03-14T14:50:30;19.46;39.22
70708;SHT30;58277;47.316;18.908;2023-03-14T14:53:16;19.30;40.14
70708;SHT30;58277;47.316;18.908;2023-03-14T14:55:41;19.14;40.28
70708;SHT30;58277;47.316;18.908;2023-03-14T14:58:34;19.12;40.10
70708;SHT30;58277;47.316;18.908;2023-03-14T15:01:05;19.12;40.28
70708;SHT30;58277;47.316;18.908;2023-03-14T15:03:32;19.09;40.19
70708;SHT30;58277;47.316;18.908;2023-03-14T15:05:55;18.96;41.60
70708;SHT30;58277;47.316;18.908;2023-03-14T15:08:18;18.75;40.61
70708;SHT30;58277;47.316;18.908;2023-03-14T15:10:42;18.75;40.81
70708;SHT30;58277;47.316;18.908;2023-03-14T15:13:04;18.59;41.21
70708;SHT30;58277;47.316;18.908;2023-03-14T15:15:27;18.61;40.41
70708;SHT30;58277;47.316;18.908;2023-03-14T15:17:54;18.45;41.00
70708;SHT30;58277;47.316;18.908;2023-03-14T15:20:17;18.45;41.20
70708;SHT30;58277;47.316;18.908;2023-03-14T15:22:42;18.31;41.00
70708;SHT30;58277;47.316;18.908;2023-03-14T15:25:06;18.04;40.62
70708;SHT30;58277;47.316;18.908;2023-03-14T15:27:32;18.04;41.03
70708;SHT30;58277;47.316;18.908;2023-03-14T15:29:56;17.97;40.94
70708;SHT30;58277;47.316;18.908;2023-03-14T15:32:19;18.01;41.04
70708;SHT30;58277;47.316;18.908;2023-03-14T15:34:42;18.03;41.30
70708;SHT30;58277;47.316;18.908;2023-03-14T15:37:07;17.99;40.49
70708;SHT30;58277;47.316;18.908;2023-03-14T15:39:31;18.10;40.42
70708;SHT30;58277;47.316;18.908;2023-03-14T15:41:53;18.14;40.28
70708;SHT30;58277;47.316;18.908;2023-03-14T15:44:16;18.04;40.46
70708;SHT30;58277;47.316;18.908;2023-03-14T15:47:00;17.86;40.99
70708;SHT30;58277;47.316;18.908;2023-03-14T15:49:23;17.72;41.86
70708;SHT30;58277;47.316;18.908;2023-03-14T15:51:46;17.52;43.01
70708;SHT30;58277;47.316;18.908;2023-03-14T15:54:30;17.28;44.12
70708;SHT30;58277;47.316;18.908;2023-03-14T15:56:52;17.14;47.00
70708;SHT30;58277;47.316;18.908;2023-03-14T15:59:15;17.15;50.20
70708;SHT30;58277;47.316;18.908;2023-03-14T16:01:38;17.18;51.69
70708;SHT30;58277;47.316;18.908;2023-03-14T16:04:00;17.06;53.21
70708;SHT30;58277;47.316;18.908;2023-03-14T16:06:24;16.84;54.88
70708;SHT30;58277;47.316;18.908;2023-03-14T16:08:47;16.79;55.06
70708;SHT30;58277;47.316;18.908;2023-03-14T16:11:11;16.66;55.64
70708;SHT30;58277;47.316;18.908;2023-03-14T16:13:35;16.62;55.79
70708;SHT30;58277;47.316;18.908;2023-03-14T16:16:00;16.62;54.65
70708;SHT30;58277;47.316;18.908;2023-03-14T16:18:23;16.49;55.33
70708;SHT30;58277;47.316;18.908;2023-03-14T16:20:54;16.26;56.01
70708;SHT30;58277;47.316;18.908;2023-03-14T16:23:17;16.17;56.57
70708;SHT30;58277;47.316;18.908;2023-03-14T16:25:40;16.18;56.73
70708;SHT30;58277;47.316;18.908;2023-03-14T16:28:03;16.01;57.47
70708;SHT30;58277;47.316;18.908;2023-03-14T16:30:32;15.97;57.97
70708;SHT30;58277;47.316;18.908;2023-03-14T16:32:55;15.91;58.93
70708;SHT30;58277;47.316;18.908;2023-03-14T16:35:19;15.70;60.26
70708;SHT30;58277;47.316;18.908;2023-03-14T16:37:42;15.46;61.30
70708;SHT30;58277;47.316;18.908;2023-03-14T16:40:06;15.40;61.23